Flight Track Log - Related Links

Times and Time Zones

All times are in EDT time to prevent confusion due to time zone crossing. See the EJA583 flight status page for this flight to view local times or setup timezone preferences in your user account.

Time Position Orientation Groundspeed Altitude Reporting Facility
EDT Latitude Longitude Course Direction KTS MPH feet Rate Location/Type
Fri 03:46:56 PM 41.7667 -87.7833 360° North 150 173 1,900  Level Chicago TRACON
Fri 03:47:56 PM 41.8167 -87.7833 360° North 240 276 3,000 762 Climbing Chicago TRACON
Fri 03:49:02 PM 41.8000 -87.6833 103° East 251 289 3,500 1,302 Climbing Chicago TRACON
Fri 03:50:05 PM 41.7983 -87.6003 92° East 252 290 5,800 2,688 Climbing Chicago Center
Fri 03:51:07 PM 41.7894 -87.4700 95° East 282 325 9,100 2,613 Climbing Chicago Center
Fri 03:52:09 PM 41.7811 -87.3497 95° East 314 361 11,200 1,968 Climbing Chicago Center
Fri 03:53:12 PM 41.7728 -87.2261 95° East 331 381 13,200 1,920 Climbing Chicago Center
Fri 03:54:14 PM 41.7636 -87.0961 95° East 348 400 15,200 2,032 Climbing Chicago Center
Fri 03:55:16 PM 41.7822 -86.9667 79° East 357 411 17,400 2,226 Climbing Chicago Center
Fri 03:56:18 PM 41.8147 -86.8097 74° East 366 421 19,800 2,032 Climbing Chicago Center
Fri 03:57:20 PM 41.8408 -86.6875 74° East 370 426 21,600 1,355 Climbing Chicago Center
Fri 03:58:22 PM 41.8706 -86.5486 74° East 386 444 22,600 968 Climbing Chicago Center
Fri 03:59:24 PM 41.9019 -86.3972 74° East 416 479 23,600 968 Climbing Chicago Center
Fri 04:00:26 PM 41.9336 -86.2439 74° East 426 490 24,600 1,113 Climbing Chicago Center
Fri 04:01:28 PM 41.9725 -86.0578 74° East 431 496 25,900 1,104 Climbing Chicago Center
Fri 04:02:31 PM 42.0056 -85.9006 74° East 434 499 26,900 960 Climbing Chicago Center
Fri 04:03:33 PM 42.0394 -85.7342 75° East 437 503 27,900 968 Climbing Chicago Center
Fri 04:04:35 PM 42.0703 -85.5769 75° East 437 503 28,900 968 Climbing Chicago Center
Fri 04:05:37 PM 42.1017 -85.4186 75° East 439 505 29,900 1,016 Climbing Chicago Center
Fri 04:06:39 PM 42.1342 -85.2592 75° East 441 507 31,000 1,016 Climbing Chicago Center
Fri 04:07:41 PM 42.1647 -85.0978 76° East 445 512 32,000 1,065 Climbing Chicago Center
Fri 04:08:43 PM 42.2028 -84.9094 75° East 440 506 33,200 968 Climbing Chicago Center
Fri 04:09:45 PM 42.2331 -84.7528 75° East 437 503 34,000 387 Climbing Chicago Center
Fri 04:10:47 PM 42.2633 -84.5931 76° East 437 503 34,000  Level Chicago Center
Fri 04:11:49 PM 42.2928 -84.4250 77° East 455 524 34,000 484 Level Chicago Center
Fri 04:12:51 PM 42.3167 -84.2592 79° East 452 520 35,000 484 Climbing Chicago Center
Fri 04:13:53 PM 42.3408 -84.0933 79° East 452 520 35,000  Level Chicago Center
Fri 04:14:56 PM 42.3689 -83.8908 79° East 458 527 35,000  Level Chicago Center
Fri 04:16:08 PM 42.3953 -83.6956 80° East 445 512 35,000  Level Cleveland Center
Fri 04:17:08 PM 42.4222 -83.5339 77° East 445 512 35,000  Level Cleveland Center
Fri 04:18:08 PM 42.4700 -83.3728 68° East 445 512 35,000  Level Cleveland Center
Fri 04:19:08 PM 42.5092 -83.2194 71° East 439 505 35,000  Level Cleveland Center
Fri 04:20:08 PM 42.5500 -83.0661 70° East 434 499 35,000  Level Cleveland Center
Fri 04:21:08 PM 42.5908 -82.9100 70° East 434 499 35,000  Level Cleveland Center
Fri 04:22:08 PM 42.6294 -82.7561 71° East 434 499 35,000  Level Cleveland Center
Fri 04:23:08 PM 42.6697 -82.6050 70° East 434 499 35,000  Level Cleveland Center
Fri 04:24:08 PM 42.7097 -82.4481 71° East 429 494 35,000  Level Cleveland Center
Fri 04:25:08 PM 42.7519 -82.2881 70° East 436 502 35,000  Level Cleveland Center
Fri 04:26:08 PM 42.8042 -82.1339 65° Northeast 442 509 35,000  Level Cleveland Center
Fri 04:27:08 PM 42.8603 -81.9794 64° Northeast 447 514 35,000  Level Cleveland Center
Fri 04:27:49 PM 42.9000 -81.8667 64° Northeast 460 529 35,000  Level Toronto Center
Fri 04:28:49 PM 42.9500 -81.7000 68° East 460 529 35,000  Level Toronto Center
Fri 04:29:49 PM 43.0000 -81.5500 65° Northeast 450 518 35,000  Level Toronto Center
Fri 04:30:49 PM 43.0500 -81.3833 68° East 450 518 35,000  Level Toronto Center
Fri 04:31:49 PM 43.1000 -81.2333 65° Northeast 450 518 35,000  Level Toronto Center
Fri 04:32:49 PM 43.1500 -81.0667 68° East 460 529 35,000  Level Toronto Center
Fri 04:33:49 PM 43.2000 -80.9167 65° Northeast 460 529 35,000  Level Toronto Center
Fri 04:34:49 PM 43.2667 -80.7833 55° Northeast 460 529 35,000  Level Toronto Center
Fri 04:35:49 PM 43.3333 -80.6000 63° Northeast 460 529 35,000  Level Toronto Center
Fri 04:36:49 PM 43.3833 -80.4667 63° Northeast 460 529 35,000  Level Toronto Center
Fri 04:37:49 PM 43.4333 -80.2833 69° East 460 529 35,000  Level Toronto Center
Fri 04:38:49 PM 43.4833 -80.1333 65° Northeast 460 529 35,000  Level Toronto Center
Fri 04:39:49 PM 43.5333 -79.9500 69° East 450 518 35,000  Level Toronto Center
Fri 04:40:49 PM 43.5833 -79.8167 63° Northeast 440 506 35,000  Level Toronto Center
Fri 04:41:49 PM 43.6333 -79.6500 67° East 460 529 35,000  Level Toronto Center
Fri 04:42:49 PM 43.6833 -79.5167 63° Northeast 440 506 35,000  Level Toronto Center
Fri 04:43:49 PM 43.7500 -79.3500 61° Northeast 450 518 35,000  Level Toronto Center
Fri 04:44:49 PM 43.8167 -79.2000 58° Northeast 450 518 35,000  Level Toronto Center
Fri 04:45:49 PM 43.8833 -79.0500 58° Northeast 460 529 35,000  Level Toronto Center
Fri 04:46:49 PM 43.9500 -78.9167 55° Northeast 460 529 35,000  Level Toronto Center
Fri 04:47:49 PM 44.0333 -78.7500 55° Northeast 460 529 35,000  Level Toronto Center
Fri 04:48:49 PM 44.1000 -78.6167 55° Northeast 450 518 35,000  Level Toronto Center
Fri 04:49:49 PM 44.1667 -78.4667 58° Northeast 450 518 35,000  Level Toronto Center
Fri 04:50:49 PM 44.2500 -78.3500 45° Northeast 450 518 35,000  Level Toronto Center
Fri 04:51:49 PM 44.3333 -78.2167 49° Northeast 450 518 35,000  Level Toronto Center
Fri 04:52:49 PM 44.4167 -78.0667 52° Northeast 460 529 35,000  Level Toronto Center
Fri 04:53:49 PM 44.5000 -77.9500 45° Northeast 460 529 35,000  Level Toronto Center
Fri 04:54:49 PM 44.6000 -77.8000 47° Northeast 460 529 35,000  Level Toronto Center
Fri 04:55:49 PM 44.6833 -77.6833 45° Northeast 460 529 35,000  Level Toronto Center
Fri 04:56:49 PM 44.7667 -77.5500 49° Northeast 460 529 35,000  Level Toronto Center
Fri 04:57:49 PM 44.8500 -77.4167 49° Northeast 450 518 35,000  Level Toronto Center
Fri 04:58:49 PM 44.9333 -77.3000 45° Northeast 450 518 35,000  Level Toronto Center
Fri 04:59:49 PM 45.0333 -77.1833 39° Northeast 450 518 35,000  Level Toronto Center
Fri 05:00:49 PM 45.1167 -77.0500 48° Northeast 460 529 35,000  Level Toronto Center
Fri 05:01:49 PM 45.2167 -76.9167 43° Northeast 460 529 35,000  Level Toronto Center
Fri 05:02:49 PM 45.3167 -76.8167 35° Northeast 450 518 35,000  Level Toronto Center
Fri 05:03:49 PM 45.4000 -76.6667 52° Northeast 450 518 35,000  Level Toronto Center
Fri 05:04:49 PM 45.4667 -76.5167 58° Northeast 450 518 35,000  Level Toronto Center
Fri 05:05:49 PM 45.5333 -76.3667 58° Northeast 450 518 35,000  Level Toronto Center
Fri 05:06:49 PM 45.5833 -76.2000 67° East 450 518 35,000  Level Toronto Center
Fri 05:07:49 PM 45.6167 -76.0333 74° East 450 518 35,000  Level Toronto Center
Fri 05:08:49 PM 45.6667 -75.8667 67° East 460 529 35,000  Level Toronto Center
Fri 05:09:49 PM 45.7167 -75.6833 69° East 460 529 35,000  Level Toronto Center
Fri 05:10:49 PM 45.7500 -75.5167 74° East 450 518 35,000  Level Toronto Center
Fri 05:11:49 PM 45.8000 -75.3500 67° East 430 495 35,000  Level Toronto Center
Fri 05:12:49 PM 45.8333 -75.2000 72° East 420 483 35,000  Level Toronto Center
Fri 05:13:49 PM 45.8667 -75.0500 72° East 410 472 35,000  Level Toronto Center
Fri 05:14:49 PM 45.9000 -74.8833 74° East 410 472 35,000  Level Toronto Center
Fri 05:15:49 PM 45.9500 -74.7333 64° Northeast 420 483 35,000  Level Toronto Center
Fri 05:16:49 PM 45.9833 -74.5833 72° East 420 483 35,000  Level Toronto Center
Fri 05:17:49 PM 46.0167 -74.4167 74° East 420 483 35,000  Level Toronto Center
Fri 05:18:49 PM 46.0500 -74.2500 74° East 430 495 35,000  Level Toronto Center
Fri 05:19:49 PM 46.1000 -74.1000 64° Northeast 430 495 35,000 -400 Level Toronto Center
Fri 05:20:49 PM 46.1333 -73.9333 74° East 440 506 34,200 -1,417 Descending Toronto Center
Fri 05:22:13 PM 46.2000 -73.6833 69° East 480 552 31,600 -1,958 Descending Montreal Center
Fri 05:23:13 PM 46.2333 -73.5167 74° East 490 564 29,500 -2,150 Descending Montreal Center
Fri 05:24:13 PM 46.3167 -73.3500 54° Northeast 470 541 27,300 -2,050 Descending Montreal Center
Fri 05:25:13 PM 46.4333 -73.2667 26° Northeast 460 529 25,400 -1,900 Descending Montreal Center
Fri 05:26:13 PM 46.5500 -73.1833 26° Northeast 470 541 23,500 -1,800 Descending Montreal Center
Fri 05:27:13 PM 46.6000 -73.0167 66° East 450 518 21,800 -1,500 Descending Montreal Center
Fri 05:28:13 PM 46.6500 -72.8333 68° East 430 495 20,500 -1,500 Descending Montreal Center
Fri 05:29:13 PM 46.7000 -72.6667 66° East 450 518 18,800 -1,900 Descending Montreal Center
Fri 05:30:13 PM 46.7500 -72.5333 61° Northeast 390 449 16,700 -1,700 Descending Montreal Center
Fri 05:31:13 PM 46.7667 -72.4167 78° East 330 380 15,400 -1,200 Descending Montreal Center
Fri 05:32:13 PM 46.8167 -72.2833 61° Northeast 300 345 14,300 -700 Descending Montreal Center
Fri 05:33:13 PM 46.8500 -72.1833 64° Northeast 280 322 14,000 -150 Descending Montreal Center
Fri 05:34:13 PM 46.8833 -72.0833 64° Northeast 270 311 14,000  Level Montreal Center
Fri 05:35:13 PM 46.9000 -71.9833 76° East 270 311 14,000  Level Montreal Center
Fri 05:36:13 PM 46.9333 -71.8667 67° East 270 311 14,000  Level Montreal Center
Fri 05:37:13 PM 46.9500 -71.7667 76° East 270 311 14,000  Level Montreal Center
Fri 05:38:13 PM 46.9833 -71.6667 64° Northeast 280 322 14,000  Level Montreal Center
Fri 05:39:13 PM 47.0167 -71.5667 64° Northeast 270 311 14,000  Level Montreal Center
Fri 05:40:13 PM 47.0333 -71.4667 76° East 270 311 14,000  Level Montreal Center
Fri 05:41:13 PM 47.0667 -71.3500 67° East 270 311 14,000  Level Montreal Center
Fri 05:42:13 PM 47.1000 -71.2500 64° Northeast 280 322 14,000  Level Montreal Center
Fri 05:43:13 PM 47.1667 -71.2333 10° North 190 219 14,000  Level Montreal Center
Fri 05:44:13 PM 47.1667 -71.3000 270° West 160 184 14,000  Level Montreal Center
Fri 05:45:13 PM 47.1333 -71.3500 226° Southwest 170 196 14,000  Level Montreal Center
Fri 05:46:13 PM 47.1167 -71.4333 254° West 180 207 14,000  Level Montreal Center
Fri 05:47:13 PM 47.1000 -71.4833 244° Southwest 180 207 14,000  Level Montreal Center
Fri 05:48:13 PM 47.0500 -71.4000 131° Southeast 240 276 14,000 -300 Level Montreal Center
Fri 05:49:13 PM 47.0833 -71.3000 64° Northeast 260 299 13,400 -1,300 Descending Montreal Center
Fri 05:50:13 PM 47.1167 -71.1833 67° East 290 334 11,400 -1,800 Descending Montreal Center
Fri 05:51:13 PM 47.1000 -71.0833 104° East 250 288 9,800 -1,900 Descending Montreal Center
Fri 05:52:13 PM 47.0333 -71.0833 180° South 230 265 7,600 -2,750 Descending Montreal Center
Fri 05:53:13 PM 46.9667 -71.1167 199° South 220 253 4,300 -1,850 Descending Montreal Center
Fri 05:54:13 PM 46.9333 -71.1667 226° Southwest 160 184 3,900 -900 Descending Montreal Center
Fri 05:55:13 PM 46.9000 -71.2000 214° Southwest 130 150 2,500 -700 Descending Montreal Center
Fri 05:56:13 PM 46.8833 -71.2333 234° Southwest 110 127 2,500 -350 Level Montreal Center
Fri 05:57:13 PM 46.8500 -71.2500 199° South 110 127 1,800 -850 Descending Montreal Center
Fri 05:58:13 PM 46.8333 -71.3000 244° Southwest 120 138 800 -550 Descending Montreal Center
Fri 05:59:13 PM 46.8167 -71.3333 234° Southwest 110 127 700 -250 Descending Montreal Center
Fri 06:00:13 PM 46.7833 -71.3667 214° Southwest 120 138 300 -400 Descending Montreal Center

Login

Don't have an account? Register now (free) for customized features, flight alerts, and more!